Time;durP1;ratioP1;P1;durP2;ratioP2;P2;SDS_P1;SDS_P2;PMS_P1;PMS_P2;Temp;Humidity;BMP_temperature;BMP_pressure;BME280_temperature;BME280_humidity;BME280_pressure;Samples;Min_cycle;Max_cycle;Signal;HPM_P1;HPM_P2
2022/07/08 00:02:05;;;;;;;;;4.00;4.00;;;;;-146.44;100.00;58906.56;5078253;28;45430;-61
2022/07/08 00:04:31;;;;;;;;;3.00;2.67;;;;;-146.44;100.00;58906.56;5078374;28;45402;-61
2022/07/08 00:06:57;;;;;;;;;2.00;2.00;;;;;-146.44;100.00;58906.56;5078119;28;45646;-61
2022/07/08 00:09:22;;;;;;;;;5.00;5.00;;;;;-146.44;100.00;58906.56;5078083;28;45449;-63
2022/07/08 00:11:48;;;;;;;;;3.67;2.67;;;;;-146.44;100.00;58906.56;5078127;27;45440;-61
2022/07/08 00:14:13;;;;;;;;;2.33;2.33;;;;;-146.44;100.00;58906.56;5078031;28;45440;-61
2022/07/08 00:16:43;;;;;;;;;2.33;2.33;;;;;-146.44;100.00;58906.56;5078123;28;45405;-61
2022/07/08 00:19:11;;;;;;;;;5.00;3.33;;;;;-146.44;100.00;58906.56;5077814;28;46082;-61
2022/07/08 00:21:38;;;;;;;;;3.00;3.00;;;;;-146.44;100.00;58906.56;5078354;27;45507;-61
2022/07/08 00:24:04;;;;;;;;;3.00;3.00;;;;;-146.44;100.00;58906.56;5078090;27;45501;-61
2022/07/08 00:26:29;;;;;;;;;4.00;2.00;;;;;-146.44;100.00;58906.56;5077792;28;45659;-61
2022/07/08 00:28:55;;;;;;;;;3.33;3.33;;;;;-146.44;100.00;58906.56;5077662;28;46116;-61
2022/07/08 00:31:20;;;;;;;;;4.00;4.00;;;;;-146.44;100.00;58906.56;5077705;28;45361;-61
2022/07/08 00:33:45;;;;;;;;;3.00;3.00;;;;;-146.44;100.00;58906.56;5077960;28;45865;-61
2022/07/08 00:36:11;;;;;;;;;3.00;3.00;;;;;-146.44;100.00;58906.56;5077613;28;45552;-61
2022/07/08 00:38:36;;;;;;;;;4.67;3.67;;;;;-146.44;100.00;58906.56;5077369;28;47169;-61
2022/07/08 00:41:01;;;;;;;;;3.00;3.00;;;;;-146.44;100.00;58906.56;5077647;28;45457;-61
2022/07/08 00:43:43;;;;;;;;;3.33;2.33;;;;;-146.44;100.00;58906.56;5077791;28;45369;-61
2022/07/08 00:46:09;;;;;;;;;2.67;2.67;;;;;-146.44;100.00;58906.56;5077442;28;45511;-61
2022/07/08 00:48:35;;;;;;;;;2.00;2.00;;;;;-146.44;100.00;58906.56;5077284;28;45463;-61
2022/07/08 00:51:04;;;;;;;;;5.00;4.00;;;;;-146.44;100.00;58906.56;5077357;27;45471;-61
2022/07/08 00:53:32;;;;;;;;;4.33;3.33;;;;;-146.44;100.00;58906.56;5077621;28;45468;-61
2022/07/08 00:55:59;;;;;;;;;5.00;3.00;;;;;-146.44;100.00;58906.56;5077376;28;45547;-61
2022/07/08 00:58:26;;;;;;;;;2.67;2.00;;;;;-146.44;100.00;58906.56;5077365;27;45672;-61
2022/07/08 01:00:53;;;;;;;;;3.00;3.00;;;;;-146.44;100.00;58906.56;5077227;28;45425;-61
2022/07/08 01:03:20;;;;;;;;;2.33;2.33;;;;;-146.44;100.00;58906.56;5076795;28;45430;-62
2022/07/08 01:05:45;;;;;;;;;2.67;2.67;;;;;-146.44;100.00;58906.56;5077314;28;45608;-61
2022/07/08 01:08:12;;;;;;;;;3.67;2.67;;;;;-146.44;100.00;58906.56;5077252;28;46002;-61
2022/07/08 01:10:38;;;;;;;;;3.00;3.00;;;;;-146.44;100.00;58906.56;5077137;28;45549;-62
2022/07/08 01:13:05;;;;;;;;;3.33;3.33;;;;;-146.44;100.00;58906.56;5076859;28;45378;-61
2022/07/08 01:15:30;;;;;;;;;5.00;3.67;;;;;-146.44;100.00;58906.56;5077274;27;45445;-62
2022/07/08 01:17:56;;;;;;;;;3.00;1.00;;;;;-146.44;100.00;58906.56;5076756;28;45557;-61
2022/07/08 01:20:21;;;;;;;;;3.00;3.00;;;;;-146.44;100.00;58906.56;5076974;28;45407;-61
2022/07/08 01:22:47;;;;;;;;;3.00;3.00;;;;;-146.44;100.00;58906.56;5077235;28;45393;-61
2022/07/08 01:25:13;;;;;;;;;2.67;2.67;;;;;-146.44;100.00;58906.56;5077177;28;45372;-62
2022/07/08 01:27:38;;;;;;;;;2.00;2.00;;;;;-146.44;100.00;58906.56;5076837;28;47178;-61
2022/07/08 01:30:05;;;;;;;;;3.00;3.00;;;;;-146.44;100.00;58906.56;5076781;28;45307;-62
2022/07/08 01:32:35;;;;;;;;;3.33;3.33;;;;;-146.44;100.00;58906.56;5076955;28;45540;-61
2022/07/08 01:35:01;;;;;;;;;2.33;2.00;;;;;-146.44;100.00;58906.56;5076870;28;45478;-61
2022/07/08 01:37:27;;;;;;;;;3.00;3.00;;;;;-146.44;100.00;58906.56;5076664;28;45515;-61
2022/07/08 01:39:52;;;;;;;;;2.33;2.33;;;;;-146.44;100.00;58906.56;5075266;28;45497;-61
2022/07/08 01:42:18;;;;;;;;;4.00;3.00;;;;;-146.44;100.00;58906.56;5076845;28;45886;-61
2022/07/08 01:44:43;;;;;;;;;3.00;3.00;;;;;-146.44;100.00;58906.56;5076889;28;45473;-61
2022/07/08 01:47:08;;;;;;;;;2.00;2.00;;;;;-146.44;100.00;58906.56;5076482;28;45414;-62
2022/07/08 01:49:34;;;;;;;;;2.67;2.00;;;;;-146.44;100.00;58906.56;5076493;28;45399;-62
2022/07/08 01:51:59;;;;;;;;;2.00;2.00;;;;;-146.44;100.00;58906.56;5076742;28;45456;-61
2022/07/08 01:54:25;;;;;;;;;4.00;3.33;;;;;-146.44;100.00;58906.56;5076570;28;45331;-61
2022/07/08 01:56:50;;;;;;;;;4.00;3.33;;;;;-146.44;100.00;58906.56;5076471;28;45517;-61
2022/07/08 01:59:16;;;;;;;;;3.00;3.00;;;;;-146.44;100.00;58906.56;5076765;27;45460;-61
2022/07/08 02:01:41;;;;;;;;;4.67;3.00;;;;;-146.44;100.00;58906.56;5076450;28;45439;-62
2022/07/08 02:04:07;;;;;;;;;5.00;5.00;;;;;-146.44;100.00;58906.56;5076421;28;45483;-62
2022/07/08 02:06:32;;;;;;;;;4.00;3.00;;;;;-146.44;100.00;58906.56;5076226;28;45431;-61
2022/07/08 02:08:57;;;;;;;;;3.00;2.00;;;;;-146.44;100.00;58906.56;5076399;28;45448;-61
2022/07/08 02:14:07;;;;;;;;;2.67;2.00;;;;;-146.44;100.00;58906.56;5075202;28;45520;-61
2022/07/08 02:16:32;;;;;;;;;2.67;2.67;;;;;-146.44;100.00;58906.56;5076089;28;45482;-61
2022/07/08 02:18:58;;;;;;;;;4.00;3.00;;;;;-146.44;100.00;58906.56;5074611;28;45468;-61
2022/07/08 02:21:23;;;;;;;;;3.00;3.00;;;;;-146.44;100.00;58906.56;5076072;28;47073;-61
2022/07/08 02:23:49;;;;;;;;;4.00;4.00;;;;;-146.44;100.00;58906.56;5076093;28;45443;-61
2022/07/08 02:26:14;;;;;;;;;2.33;2.33;;;;;-146.44;100.00;58906.56;5076119;28;45432;-62
2022/07/08 02:28:40;;;;;;;;;6.00;5.00;;;;;-146.44;100.00;58906.56;5076006;28;45443;-61
2022/07/08 02:31:05;;;;;;;;;4.00;4.00;;;;;-146.44;100.00;58906.56;5074832;28;45544;-61
2022/07/08 02:33:30;;;;;;;;;2.00;2.00;;;;;-146.44;100.00;58906.56;5076176;28;45367;-62
2022/07/08 02:35:56;;;;;;;;;2.00;2.00;;;;;-146.44;100.00;58906.56;5075442;28;51527;-62
2022/07/08 02:38:22;;;;;;;;;2.67;2.67;;;;;-146.44;100.00;58906.56;5075761;28;45363;-62
2022/07/08 02:40:47;;;;;;;;;4.00;3.00;;;;;-146.44;100.00;58906.56;5075923;28;45433;-61
2022/07/08 02:43:13;;;;;;;;;2.67;2.67;;;;;-146.44;100.00;58906.56;5075618;28;45546;-61
2022/07/08 02:45:38;;;;;;;;;3.00;3.00;;;;;-146.44;100.00;58906.56;5075753;28;45896;-61
2022/07/08 02:48:07;;;;;;;;;1.67;1.33;;;;;-146.44;100.00;58906.56;5075635;28;45470;-61
2022/07/08 02:50:33;;;;;;;;;2.00;2.00;;;;;-146.44;100.00;58906.56;5075708;28;45521;-61
2022/07/08 02:52:58;;;;;;;;;2.00;2.00;;;;;-146.44;100.00;58906.56;5075869;28;45427;-61
2022/07/08 02:55:24;;;;;;;;;3.67;3.67;;;;;-146.44;100.00;58906.56;5075657;28;46085;-62
2022/07/08 02:57:49;;;;;;;;;4.00;3.00;;;;;-146.44;100.00;58906.56;5075374;28;45423;-61
2022/07/08 03:00:14;;;;;;;;;3.00;2.00;;;;;-146.44;100.00;58906.56;5075847;28;45476;-61
2022/07/08 03:02:40;;;;;;;;;2.33;2.33;;;;;-146.44;100.00;58906.56;5075504;28;45583;-61
2022/07/08 03:05:05;;;;;;;;;2.00;2.00;;;;;-146.44;100.00;58906.56;5075308;28;45461;-61
2022/07/08 03:07:31;;;;;;;;;2.00;2.00;;;;;-146.44;100.00;58906.56;5075565;27;45441;-62
2022/07/08 03:09:56;;;;;;;;;2.67;2.67;;;;;-146.44;100.00;58906.56;5075644;28;45576;-61
2022/07/08 03:12:21;;;;;;;;;5.00;4.00;;;;;-146.44;100.00;58906.56;5075438;28;45374;-61
2022/07/08 03:14:47;;;;;;;;;2.67;2.67;;;;;-146.44;100.00;58906.56;5075081;28;45427;-61
2022/07/08 03:17:12;;;;;;;;;2.67;2.67;;;;;-146.44;100.00;58906.56;5075724;27;45422;-61
2022/07/08 03:19:37;;;;;;;;;2.33;2.33;;;;;-146.44;100.00;58906.56;5075558;28;45401;-61
2022/07/08 03:22:03;;;;;;;;;4.67;3.00;;;;;-146.44;100.00;58906.56;5075472;28;45483;-62
2022/07/08 03:24:29;;;;;;;;;3.00;3.00;;;;;-146.44;100.00;58906.56;5075129;27;45562;-62
2022/07/08 03:26:54;;;;;;;;;3.00;3.00;;;;;-146.44;100.00;58906.56;5078910;28;45369;-62
2022/07/08 03:29:20;;;;;;;;;3.00;3.00;;;;;-146.44;100.00;58906.56;5079064;28;45473;-62
2022/07/08 03:31:45;;;;;;;;;3.67;3.67;;;;;-146.44;100.00;58906.56;5079109;28;45501;-62
2022/07/08 03:34:10;;;;;;;;;3.00;3.00;;;;;-146.44;100.00;58906.56;5078770;28;45521;-62
2022/07/08 03:36:36;;;;;;;;;4.33;3.67;;;;;-146.44;100.00;58906.56;5078520;28;46297;-62
2022/07/08 03:39:01;;;;;;;;;3.33;3.00;;;;;-146.44;100.00;58906.56;5094725;27;45502;-62
2022/07/08 03:41:27;;;;;;;;;3.33;3.33;;;;;-146.44;100.00;58906.56;5078856;28;45647;-62
2022/07/08 03:43:53;;;;;;;;;7.00;4.67;;;;;-146.44;100.00;58906.56;5078370;28;45459;-62
2022/07/08 03:46:19;;;;;;;;;4.33;3.33;;;;;-146.44;100.00;58906.56;5078589;28;45434;-62
2022/07/08 03:48:45;;;;;;;;;5.33;4.67;;;;;-146.44;100.00;58906.56;5078503;28;45458;-62
2022/07/08 03:51:10;;;;;;;;;4.00;4.00;;;;;-146.44;100.00;58906.56;5078291;28;45414;-62
2022/07/08 03:53:36;;;;;;;;;2.67;2.67;;;;;-146.44;100.00;58906.56;5078206;28;45450;-62
2022/07/08 03:56:02;;;;;;;;;4.00;4.00;;;;;-146.44;100.00;58906.56;5078458;27;45575;-62
2022/07/08 03:58:28;;;;;;;;;4.33;4.33;;;;;-146.44;100.00;58906.56;5078299;28;45382;-62
2022/07/08 04:00:53;;;;;;;;;2.67;2.67;;;;;-146.44;100.00;58906.56;5078380;28;45359;-62
2022/07/08 04:03:18;;;;;;;;;3.00;3.00;;;;;-146.44;100.00;58906.56;5078008;28;45374;-62
2022/07/08 04:05:44;;;;;;;;;3.67;2.33;;;;;-146.44;100.00;58906.56;5078194;28;45377;-62
2022/07/08 04:08:09;;;;;;;;;5.00;3.00;;;;;-146.44;100.00;58906.56;5078077;28;45393;-62
2022/07/08 04:10:34;;;;;;;;;3.00;3.00;;;;;-146.44;100.00;58906.56;5078136;28;45574;-62
2022/07/08 04:13:00;;;;;;;;;6.33;4.00;;;;;-146.44;100.00;58906.56;5077748;28;45421;-62
2022/07/08 04:15:25;;;;;;;;;2.00;2.00;;;;;-146.44;100.00;58906.56;5077858;28;45365;-62
2022/07/08 04:17:52;;;;;;;;;2.67;2.67;;;;;-146.44;100.00;58906.56;5078078;28;45952;-62
2022/07/08 04:20:17;;;;;;;;;5.00;4.00;;;;;-146.44;100.00;58906.56;5078158;28;45378;-62
2022/07/08 04:22:43;;;;;;;;;3.33;3.33;;;;;-146.44;100.00;58906.56;5076512;27;45719;-62
2022/07/08 04:25:08;;;;;;;;;3.00;3.00;;;;;-146.44;100.00;58906.56;5077621;28;45521;-61
2022/07/08 04:27:34;;;;;;;;;4.33;4.33;;;;;-146.44;100.00;58906.56;5077837;28;45496;-62
2022/07/08 04:29:59;;;;;;;;;3.67;3.67;;;;;-146.44;100.00;58906.56;5077822;27;45572;-62
2022/07/08 04:32:25;;;;;;;;;3.00;3.00;;;;;-146.44;100.00;58906.56;5077487;28;45480;-62
2022/07/08 04:34:51;;;;;;;;;5.67;4.67;;;;;-146.44;100.00;58906.56;5077753;28;45476;-62
2022/07/08 04:37:17;;;;;;;;;4.00;4.00;;;;;-146.44;100.00;58906.56;5076679;28;45504;-62
2022/07/08 04:39:43;;;;;;;;;4.00;4.00;;;;;-146.44;100.00;58906.56;5077437;28;45558;-61
2022/07/08 04:42:08;;;;;;;;;3.00;3.00;;;;;-146.44;100.00;58906.56;5077296;28;45485;-62
2022/07/08 04:44:33;;;;;;;;;4.67;3.00;;;;;-146.44;100.00;58906.56;5077441;28;45404;-62
2022/07/08 04:46:59;;;;;;;;;5.33;5.33;;;;;-146.44;100.00;58906.56;5077690;28;45422;-62
2022/07/08 04:49:24;;;;;;;;;6.00;5.00;;;;;-146.44;100.00;58906.56;5077650;28;45606;-62
2022/07/08 04:51:50;;;;;;;;;3.00;3.00;;;;;-146.44;100.00;58906.56;5077085;28;47433;-61
2022/07/08 04:54:15;;;;;;;;;4.33;4.33;;;;;-146.44;100.00;58906.56;5077273;28;45450;-62
2022/07/08 04:56:41;;;;;;;;;3.00;3.00;;;;;-146.44;100.00;58906.56;5077430;28;45575;-61
2022/07/08 04:59:06;;;;;;;;;5.00;3.00;;;;;-146.44;100.00;58906.56;5077320;28;45502;-62
2022/07/08 05:01:32;;;;;;;;;4.33;4.00;;;;;-146.44;100.00;58906.56;5077140;28;46077;-62
2022/07/08 05:03:57;;;;;;;;;3.00;3.00;;;;;-146.44;100.00;58906.56;5075657;27;50457;-62
2022/07/08 05:06:22;;;;;;;;;3.00;2.33;;;;;-146.44;100.00;58906.56;5077264;28;45385;-62
2022/07/08 05:08:49;;;;;;;;;5.00;3.33;;;;;-146.44;100.00;58906.56;5077164;28;45437;-62
2022/07/08 05:11:14;;;;;;;;;3.67;2.33;;;;;-146.44;100.00;58906.56;5076688;28;45493;-62
2022/07/08 05:13:39;;;;;;;;;3.33;3.00;;;;;-146.44;100.00;58906.56;5076599;28;45386;-62
2022/07/08 05:16:05;;;;;;;;;5.00;4.00;;;;;-146.44;100.00;58906.56;5077007;28;45467;-62
2022/07/08 05:18:30;;;;;;;;;8.67;5.33;;;;;-146.44;100.00;58906.56;5076948;28;45591;-62
2022/07/08 05:20:56;;;;;;;;;5.00;4.00;;;;;-146.44;100.00;58906.56;5076613;28;45391;-60
2022/07/08 05:23:21;;;;;;;;;3.67;3.67;;;;;-146.44;100.00;58906.56;5076731;28;45437;-61
2022/07/08 05:25:46;;;;;;;;;4.67;4.67;;;;;-146.44;100.00;58906.56;5076897;28;45442;-61
2022/07/08 05:28:12;;;;;;;;;5.33;4.00;;;;;-146.44;100.00;58906.56;5076956;28;45367;-61
2022/07/08 05:30:37;;;;;;;;;3.00;3.00;;;;;-146.44;100.00;58906.56;5076696;28;46041;-61
2022/07/08 05:33:02;;;;;;;;;9.00;6.00;;;;;-146.44;100.00;58906.56;5076685;28;45461;-61
2022/07/08 05:35:28;;;;;;;;;5.33;4.33;;;;;-146.44;100.00;58906.56;5076499;28;45369;-61
2022/07/08 05:37:54;;;;;;;;;6.00;5.00;;;;;-146.44;100.00;58906.56;5076072;28;45515;-61
2022/07/08 05:40:19;;;;;;;;;5.33;4.00;;;;;-146.44;100.00;58906.56;5076484;28;45619;-61
2022/07/08 05:42:45;;;;;;;;;5.33;4.00;;;;;-146.44;100.00;58906.56;5076799;27;45339;-61
2022/07/08 05:45:10;;;;;;;;;4.00;4.00;;;;;-146.44;100.00;58906.56;5076433;28;45391;-62
2022/07/08 05:47:36;;;;;;;;;4.00;4.00;;;;;-146.44;100.00;58906.56;5076671;28;45508;-61
2022/07/08 05:50:01;;;;;;;;;5.67;5.67;;;;;-146.44;100.00;58906.56;5076356;28;45444;-62
2022/07/08 05:52:27;;;;;;;;;5.67;5.67;;;;;-146.44;100.00;58906.56;5076552;28;45428;-61
2022/07/08 05:54:52;;;;;;;;;6.00;5.33;;;;;-146.44;100.00;58906.56;5076601;28;45559;-61
2022/07/08 05:57:17;;;;;;;;;7.33;7.00;;;;;-146.44;100.00;58906.56;5076390;28;45588;-62
2022/07/08 05:59:44;;;;;;;;;7.00;6.00;;;;;-146.44;100.00;58906.56;5076218;28;46171;-61
2022/07/08 06:02:09;;;;;;;;;5.00;5.00;;;;;-146.44;100.00;58906.56;5076290;28;45449;-61
2022/07/08 06:04:35;;;;;;;;;8.00;7.67;;;;;-146.44;100.00;58906.56;5076234;28;45520;-61
2022/07/08 06:07:01;;;;;;;;;11.33;8.00;;;;;-146.44;100.00;58906.56;5076417;28;45579;-61
2022/07/08 06:09:26;;;;;;;;;8.00;8.00;;;;;-146.44;100.00;58906.56;5076057;28;46202;-62
2022/07/08 06:11:51;;;;;;;;;5.67;5.67;;;;;-146.44;100.00;58906.56;5076082;28;45430;-62
2022/07/08 06:14:17;;;;;;;;;7.33;5.67;;;;;-146.44;100.00;58906.56;5076005;28;45484;-62
2022/07/08 06:16:47;;;;;;;;;7.67;7.67;;;;;-146.44;100.00;58906.56;5076068;27;45588;-62
2022/07/08 06:19:13;;;;;;;;;7.00;7.00;;;;;-146.44;100.00;58906.56;5075807;28;46091;-62
2022/07/08 06:21:38;;;;;;;;;7.00;7.00;;;;;-146.44;100.00;58906.56;5075917;28;45498;-62
2022/07/08 06:24:04;;;;;;;;;6.67;4.33;;;;;-146.44;100.00;58906.56;5075762;28;49302;-62
2022/07/08 06:26:29;;;;;;;;;6.00;5.67;;;;;-146.44;100.00;58906.56;5075848;28;45380;-62
2022/07/08 06:28:54;;;;;;;;;6.33;5.33;;;;;-146.44;100.00;58906.56;5076004;28;45371;-62
2022/07/08 06:31:20;;;;;;;;;5.00;5.00;;;;;-146.44;100.00;58906.56;5074541;28;45999;-62
2022/07/08 06:33:45;;;;;;;;;4.33;4.33;;;;;-146.44;100.00;58906.56;5075925;28;45429;-62
2022/07/08 06:36:10;;;;;;;;;6.00;5.33;;;;;-146.44;100.00;58906.56;5074651;28;45572;-62
2022/07/08 06:38:36;;;;;;;;;6.00;5.00;;;;;-146.44;100.00;58906.56;5075456;28;46205;-62
2022/07/08 06:41:01;;;;;;;;;4.00;4.00;;;;;-146.44;100.00;58906.56;5075799;28;45462;-63
2022/07/08 06:43:26;;;;;;;;;5.00;5.00;;;;;-146.44;100.00;58906.56;5074751;27;45361;-63
2022/07/08 06:45:52;;;;;;;;;6.33;5.33;;;;;-146.44;100.00;58906.56;5075702;28;45401;-63
2022/07/08 06:48:17;;;;;;;;;5.67;5.67;;;;;-146.44;100.00;58906.56;5075705;28;45448;-62
2022/07/08 06:50:42;;;;;;;;;6.00;6.00;;;;;-146.44;100.00;58906.56;5075570;28;45414;-63
2022/07/08 06:53:08;;;;;;;;;10.00;8.67;;;;;-146.44;100.00;58906.56;5075625;28;45457;-63
2022/07/08 06:55:33;;;;;;;;;6.67;5.33;;;;;-146.44;100.00;58906.56;5075873;28;45307;-62
2022/07/08 06:57:59;;;;;;;;;7.00;6.00;;;;;-146.44;100.00;58906.56;5075387;28;45377;-60
2022/07/08 07:00:24;;;;;;;;;6.33;5.33;;;;;-146.44;100.00;58906.56;5076908;27;45465;-63
2022/07/08 07:02:50;;;;;;;;;5.33;5.33;;;;;-146.44;100.00;58906.56;5079126;27;45307;-62
2022/07/08 07:05:17;;;;;;;;;8.33;7.00;;;;;-146.44;100.00;58906.56;5079216;28;45503;-60
2022/07/08 07:07:42;;;;;;;;;9.33;6.67;;;;;-146.44;100.00;58906.56;5079026;28;46008;-62
2022/07/08 07:10:08;;;;;;;;;10.33;7.33;;;;;-146.44;100.00;58906.56;5079156;28;45453;-62
2022/07/08 07:12:34;;;;;;;;;7.33;7.00;;;;;-146.44;100.00;58906.56;5079027;28;45519;-62
2022/07/08 07:15:00;;;;;;;;;6.33;6.00;;;;;-146.44;100.00;58906.56;5078983;28;45566;-66
2022/07/08 07:17:25;;;;;;;;;9.67;6.67;;;;;-146.44;100.00;58906.56;5078723;27;45400;-62
2022/07/08 07:19:50;;;;;;;;;9.00;8.33;;;;;-146.44;100.00;58906.56;5078931;28;45474;-62
2022/07/08 07:22:16;;;;;;;;;8.00;8.00;;;;;-146.44;100.00;58906.56;5077741;28;45405;-62
2022/07/08 07:24:42;;;;;;;;;7.33;7.00;;;;;-146.44;100.00;58906.56;5078871;27;45557;-60
2022/07/08 07:27:08;;;;;;;;;10.67;7.33;;;;;-146.44;100.00;58906.56;5078448;28;46170;-60
2022/07/08 07:29:33;;;;;;;;;8.67;8.33;;;;;-146.44;100.00;58906.56;5078670;28;45525;-60
2022/07/08 07:31:59;;;;;;;;;7.67;7.67;;;;;-146.44;100.00;58906.56;5078832;28;45477;-60
2022/07/08 07:34:24;;;;;;;;;8.33;8.33;;;;;-146.44;100.00;58906.56;5078663;28;45393;-60
2022/07/08 07:36:49;;;;;;;;;11.00;10.00;;;;;-146.44;100.00;58906.56;5078482;28;45345;-62
2022/07/08 07:39:15;;;;;;;;;10.33;8.33;;;;;-146.44;100.00;58906.56;5078602;28;45323;-63
2022/07/08 07:41:40;;;;;;;;;7.00;7.00;;;;;-146.44;100.00;58906.56;5078441;28;45312;-62
2022/07/08 07:44:06;;;;;;;;;7.33;7.33;;;;;-146.44;100.00;58906.56;5078371;28;45406;-62
2022/07/08 07:46:32;;;;;;;;;6.33;6.33;;;;;-146.44;100.00;58906.56;5078151;28;46271;-62
2022/07/08 07:48:58;;;;;;;;;8.67;7.00;;;;;-146.44;100.00;58906.56;5078334;27;45516;-62
2022/07/08 07:51:24;;;;;;;;;7.00;6.00;;;;;-146.44;100.00;58906.56;5078399;27;45501;-62
2022/07/08 07:53:49;;;;;;;;;10.67;10.33;;;;;-146.44;100.00;58906.56;5078525;28;45599;-62
2022/07/08 07:56:14;;;;;;;;;7.67;7.67;;;;;-146.44;100.00;58906.56;5078156;28;45877;-62
2022/07/08 07:58:40;;;;;;;;;10.00;8.67;;;;;-146.44;100.00;58906.56;5078003;28;45375;-62
2022/07/08 08:01:06;;;;;;;;;8.67;7.33;;;;;-146.44;100.00;58906.56;5078355;28;45379;-61
2022/07/08 08:03:31;;;;;;;;;9.33;8.67;;;;;-146.44;100.00;58906.56;5078348;28;45668;-61
2022/07/08 08:05:57;;;;;;;;;8.33;8.33;;;;;-146.44;100.00;58906.56;5078038;28;45970;-62
2022/07/08 08:08:24;;;;;;;;;10.67;9.67;;;;;-146.44;100.00;58906.56;5078083;28;45405;-62
2022/07/08 08:10:50;;;;;;;;;10.33;8.33;;;;;-146.44;100.00;58906.56;5077959;28;45312;-62
2022/07/08 08:13:16;;;;;;;;;9.33;9.00;;;;;-146.44;100.00;58906.56;5076868;28;45643;-62
2022/07/08 08:15:41;;;;;;;;;8.00;7.33;;;;;-146.44;100.00;58906.56;5077806;28;46244;-62
2022/07/08 08:18:07;;;;;;;;;14.00;10.67;;;;;-146.44;100.00;58906.56;5077881;28;45446;-62
2022/07/08 08:20:32;;;;;;;;;12.00;9.00;;;;;-146.44;100.00;58906.56;5078154;28;45479;-62
2022/07/08 08:22:58;;;;;;;;;9.67;9.67;;;;;-146.44;100.00;58906.56;5077776;28;45657;-62
2022/07/08 08:25:24;;;;;;;;;9.67;9.00;;;;;-146.44;100.00;58906.56;5077881;28;46073;-62
2022/07/08 08:27:49;;;;;;;;;9.00;9.00;;;;;-146.44;100.00;58906.56;5077619;28;45553;-62
2022/07/08 08:30:16;;;;;;;;;7.33;7.33;;;;;-146.44;100.00;58906.56;5077858;28;45808;-62
2022/07/08 08:32:42;;;;;;;;;8.00;7.00;;;;;-146.44;100.00;58906.56;5077908;27;45468;-62
2022/07/08 08:35:09;;;;;;;;;8.00;7.00;;;;;-146.44;100.00;58906.56;5077515;28;45792;-62
2022/07/08 08:37:34;;;;;;;;;8.67;8.33;;;;;-146.44;100.00;58906.56;5077536;28;45488;-62
2022/07/08 08:40:07;;;;;;;;;9.33;9.33;;;;;-146.44;100.00;58906.56;5077660;28;45432;-62
2022/07/08 08:42:33;;;;;;;;;8.33;7.33;;;;;-146.44;100.00;58906.56;5077557;28;45370;-62
2022/07/08 08:44:59;;;;;;;;;7.67;6.00;;;;;-146.44;100.00;58906.56;5075645;28;46331;-63
2022/07/08 08:47:30;;;;;;;;;8.00;8.00;;;;;-146.44;100.00;58906.56;5077503;28;45425;-62
2022/07/08 08:49:57;;;;;;;;;7.67;6.67;;;;;-146.44;100.00;58906.56;5077304;28;45495;-63
2022/07/08 08:52:24;;;;;;;;;8.00;7.33;;;;;-146.44;100.00;58906.56;5077243;28;45357;-61
2022/07/08 08:54:51;;;;;;;;;9.00;7.00;;;;;-146.44;100.00;58906.56;5076951;28;45419;-62
2022/07/08 08:57:18;;;;;;;;;9.00;8.33;;;;;-146.44;100.00;58906.56;5077173;28;45650;-63
2022/07/08 08:59:45;;;;;;;;;7.33;7.33;;;;;-146.44;100.00;58906.56;5077331;27;45486;-62
2022/07/08 09:02:12;;;;;;;;;9.00;7.67;;;;;-146.44;100.00;58906.56;5077275;28;45443;-62
2022/07/08 09:04:38;;;;;;;;;6.67;6.67;;;;;-146.44;100.00;58906.56;5076861;28;45393;-62
2022/07/08 09:07:03;;;;;;;;;7.67;7.67;;;;;-146.44;100.00;58906.56;5092828;27;46264;-62
2022/07/08 09:09:28;;;;;;;;;7.00;7.00;;;;;-146.44;100.00;58906.56;5077319;28;45401;-62
2022/07/08 09:11:54;;;;;;;;;7.67;7.67;;;;;-146.44;100.00;58906.56;5076957;28;45374;-61
2022/07/08 09:14:21;;;;;;;;;6.00;5.00;;;;;-146.44;100.00;58906.56;5076843;28;45996;-61
2022/07/08 09:17:07;;;;;;;;;7.67;7.67;;;;;-146.44;100.00;58906.56;5076984;28;45510;-62
2022/07/08 09:19:33;;;;;;;;;9.00;8.67;;;;;-146.44;100.00;58906.56;5077295;27;45453;-61
2022/07/08 09:21:58;;;;;;;;;7.00;7.00;;;;;-146.44;100.00;58906.56;5075496;28;45628;-61
2022/07/08 09:24:23;;;;;;;;;6.33;6.33;;;;;-146.44;100.00;58906.56;5076325;28;47766;-61
2022/07/08 09:26:54;;;;;;;;;7.67;7.33;;;;;-146.44;100.00;58906.56;5076777;28;47218;-61
2022/07/08 09:29:19;;;;;;;;;10.00;8.33;;;;;-146.44;100.00;58906.56;5077010;28;45363;-61
2022/07/08 09:31:45;;;;;;;;;7.67;7.67;;;;;-146.44;100.00;58906.56;5076881;28;45412;-63
2022/07/08 09:34:12;;;;;;;;;6.00;6.00;;;;;-146.44;100.00;58906.56;5076655;28;45400;-62
2022/07/08 09:36:49;;;;;;;;;5.67;5.00;;;;;-146.44;100.00;58906.56;5076602;28;45528;-61
2022/07/08 09:39:25;;;;;;;;;6.00;6.00;;;;;-146.44;100.00;58906.56;5076505;28;45457;-62
2022/07/08 09:41:51;;;;;;;;;7.00;7.00;;;;;-146.44;100.00;58906.56;5076452;28;45523;-61
2022/07/08 09:44:19;;;;;;;;;6.00;6.00;;;;;-146.44;100.00;58906.56;5076452;28;45517;-62
2022/07/08 09:46:44;;;;;;;;;7.00;7.00;;;;;-146.44;100.00;58906.56;5076553;28;45405;-61
2022/07/08 09:49:26;;;;;;;;;23.00;23.00;;;;;-146.44;100.00;58906.56;5076646;28;45353;-61
2022/07/08 09:51:52;;;;;;;;;8.67;8.00;;;;;-146.44;100.00;58906.56;5075175;28;45495;-62
2022/07/08 09:54:17;;;;;;;;;8.00;7.00;;;;;-146.44;100.00;58906.56;5076301;28;45490;-61
2022/07/08 09:57:00;;;;;;;;;6.67;6.67;;;;;-146.44;100.00;58906.56;5075157;28;45381;-61
2022/07/08 09:59:26;;;;;;;;;11.00;9.67;;;;;-146.44;100.00;58906.56;5076636;28;45494;-61
2022/07/08 10:01:52;;;;;;;;;6.00;6.00;;;;;-146.44;100.00;58906.56;5076278;28;45365;-61
2022/07/08 10:04:18;;;;;;;;;10.33;9.67;;;;;-146.44;100.00;58906.56;5076009;28;46198;-61
2022/07/08 10:06:44;;;;;;;;;10.00;9.00;;;;;-146.44;100.00;58906.56;5076227;28;45397;-62
2022/07/08 10:09:10;;;;;;;;;9.00;7.00;;;;;-146.44;100.00;58906.56;5076079;28;45374;-61
2022/07/08 10:11:38;;;;;;;;;7.00;7.00;;;;;-146.44;100.00;58906.56;5076356;28;45338;-62
2022/07/08 10:14:05;;;;;;;;;7.00;7.00;;;;;-146.44;100.00;58906.56;5075653;28;45537;-62
2022/07/08 10:16:34;;;;;;;;;8.67;7.67;;;;;-146.44;100.00;58906.56;5074626;27;45374;-61
2022/07/08 10:19:02;;;;;;;;;10.00;9.67;;;;;-146.44;100.00;58906.56;5076083;28;45490;-61
2022/07/08 10:21:30;;;;;;;;;9.33;8.00;;;;;-146.44;100.00;58906.56;5076092;28;45540;-61
2022/07/08 10:23:56;;;;;;;;;6.00;6.00;;;;;-146.44;100.00;58906.56;5075572;28;46466;-61
2022/07/08 10:26:28;;;;;;;;;10.33;9.33;;;;;-146.44;100.00;58906.56;5075704;28;45443;-61
2022/07/08 10:29:03;;;;;;;;;8.00;8.00;;;;;-146.44;100.00;58906.56;5074434;28;45414;-62
2022/07/08 10:31:29;;;;;;;;;6.33;6.33;;;;;-146.44;100.00;58906.56;5075978;28;45543;-61
2022/07/08 10:34:01;;;;;;;;;10.00;8.33;;;;;-146.44;100.00;58906.56;5075241;28;46199;-62
2022/07/08 10:36:27;;;;;;;;;8.00;7.67;;;;;-146.44;100.00;58906.56;5075094;28;45343;-61
2022/07/08 10:38:54;;;;;;;;;7.00;7.00;;;;;-146.44;100.00;58906.56;5075726;28;45466;-61
2022/07/08 10:41:26;;;;;;;;;7.67;6.67;;;;;-146.44;100.00;58906.56;5075448;28;45520;-61
2022/07/08 10:43:57;;;;;;;;;7.67;6.00;;;;;-146.44;100.00;58906.56;5074063;28;46079;-61
2022/07/08 10:46:26;;;;;;;;;5.33;5.33;;;;;-146.44;100.00;58906.56;5075415;28;45367;-61
2022/07/08 10:48:55;;;;;;;;;5.00;5.00;;;;;-146.44;100.00;58906.56;5075633;28;45742;-61
2022/07/08 10:51:29;;;;;;;;;5.33;5.33;;;;;-146.44;100.00;58906.56;5075387;28;45444;-61
2022/07/08 10:54:01;;;;;;;;;5.67;5.33;;;;;-146.44;100.00;58906.56;5075102;28;45430;-61
2022/07/08 10:56:50;;;;;;;;;5.33;5.33;;;;;-146.44;100.00;58906.56;5074097;27;45566;-62
2022/07/08 10:59:29;;;;;;;;;6.00;6.00;;;;;-146.44;100.00;58906.56;5075348;27;45513;-62
2022/07/08 11:02:11;;;;;;;;;4.25;4.25;;;;;-146.44;100.00;58906.56;5075114;28;45476;-62
2022/07/08 11:04:37;;;;;;;;;4.50;4.50;;;;;-146.44;100.00;58906.56;5073820;27;45482;-62
2022/07/08 11:07:14;;;;;;;;;8.25;6.00;;;;;-146.44;100.00;58906.56;5075042;28;45331;-62
2022/07/08 11:09:40;;;;;;;;;5.50;5.50;;;;;-146.44;100.00;58906.56;5075197;28;45347;-62